createdAt,value
2018-12-14T00:00:01.157Z,43.87
2018-12-14T00:01:01.147Z,43.87
2018-12-14T00:02:01.134Z,43.07
2018-12-14T15:40:04.654Z,42.05
2018-12-14T15:41:04.633Z,41.75
2018-12-14T15:42:04.619Z,41.67
2018-12-14T15:43:04.613Z,42.66
2018-12-14T15:44:04.599Z,42.35
2018-12-14T15:45:04.660Z,42.25
2018-12-14T15:46:04.580Z,42.16
2018-12-14T15:47:04.566Z,42.05
2018-12-14T15:48:04.556Z,41.74
2018-12-14T15:49:04.561Z,41.96
2018-12-14T15:50:04.537Z,42.03
2018-12-14T15:51:04.525Z,42.16
2018-12-14T15:52:04.519Z,41.96
2018-12-14T15:53:04.502Z,42.93
2018-12-14T15:54:04.496Z,42.24
2018-12-14T15:55:04.479Z,42.13
2018-12-14T15:56:04.467Z,41.63
2018-12-14T15:57:04.459Z,42.33
2018-12-14T15:58:04.464Z,42.03
2018-12-14T15:59:04.437Z,42.33
2018-12-14T16:00:04.434Z,41.93
2018-12-14T16:01:04.414Z,42.21
2018-12-14T16:02:04.405Z,42.32
2018-12-14T16:03:04.395Z,41.91
2018-12-14T16:04:04.383Z,42.11
2018-12-14T16:05:04.372Z,42.11
2018-12-14T16:06:04.361Z,41.80
2018-12-14T16:07:04.349Z,42.02
2018-12-14T16:08:04.342Z,42.10
2018-12-14T16:09:04.339Z,42.10
2018-12-14T16:10:04.321Z,41.80
2018-12-14T16:11:04.309Z,41.89
2018-12-14T16:12:04.301Z,41.60
2018-12-14T16:13:04.326Z,41.69
2018-12-14T16:14:04.278Z,41.89
2018-12-14T16:15:04.287Z,42.19
2018-12-14T16:16:04.259Z,41.58
2018-12-14T16:17:04.245Z,42.10
2018-12-14T16:18:04.315Z,42.07
2018-12-14T16:19:04.252Z,41.88
2018-12-14T16:20:04.212Z,42.77
2018-12-14T16:21:04.203Z,42.18
2018-12-14T16:22:04.237Z,42.38
2018-12-14T16:23:04.185Z,42.27
2018-12-14T16:24:04.171Z,42.57
2018-12-14T16:25:04.175Z,43.37
2018-12-14T16:26:04.167Z,43.87
2018-12-14T16:27:04.138Z,43.98
2018-12-14T16:28:04.127Z,42.87
2018-12-14T16:29:04.128Z,42.27
2018-12-14T16:30:04.109Z,42.57
2018-12-14T16:31:04.097Z,42.97
2018-12-14T16:32:04.084Z,43.67
2018-12-14T16:33:04.078Z,43.37
2018-12-14T16:34:04.067Z,42.97
2018-12-14T16:35:04.055Z,43.07
2018-12-14T16:36:04.048Z,42.47
2018-12-14T16:37:04.033Z,42.57
2018-12-14T16:38:04.020Z,42.27
2018-12-14T16:39:04.017Z,42.07
2018-12-14T16:40:04.003Z,43.27
2018-12-14T16:41:03.990Z,42.87
2018-12-14T16:42:03.976Z,42.87
2018-12-14T16:43:03.973Z,42.97
2018-12-14T16:44:03.958Z,43.07
2018-12-14T16:45:03.961Z,43.37
2018-12-14T16:46:03.934Z,43.67
2018-12-14T16:47:03.923Z,43.87
2018-12-14T16:48:03.909Z,43.18
2018-12-14T16:49:03.901Z,42.57
2018-12-14T16:50:03.890Z,42.27
2018-12-14T16:51:03.878Z,42.07
2018-12-14T16:52:03.866Z,42.07
2018-12-14T16:53:03.856Z,41.88
2018-12-14T16:54:03.843Z,41.88
2018-12-14T16:55:03.834Z,42.27
2018-12-14T16:56:03.827Z,41.66
2018-12-14T16:57:03.814Z,41.25
2018-12-14T16:58:03.805Z,42.07
2018-12-14T16:59:03.788Z,41.75
2018-12-14T17:00:03.782Z,41.85
2018-12-14T17:01:03.774Z,41.77
2018-12-14T17:02:03.768Z,42.15
2018-12-14T17:03:03.747Z,42.05
2018-12-14T17:04:03.737Z,41.66
2018-12-14T17:05:03.731Z,41.55
2018-12-14T17:06:03.712Z,41.16
2018-12-14T17:07:03.703Z,41.36
2018-12-14T17:08:03.695Z,41.75
2018-12-14T17:09:03.683Z,42.25
2018-12-14T17:10:03.673Z,42.46
2018-12-14T17:11:03.657Z,42.55
2018-12-14T17:12:03.649Z,42.55
2018-12-14T17:13:03.637Z,42.05
2018-12-14T17:14:03.630Z,42.05
2018-12-14T17:15:03.617Z,42.65
2018-12-14T17:16:03.603Z,42.35
2018-12-14T17:17:03.592Z,41.96
2018-12-14T17:18:04.731Z,42.05
2018-12-14T17:19:03.573Z,42.05
2018-12-14T17:20:03.561Z,42.05
2018-12-14T17:21:03.566Z,42.35
2018-12-14T17:22:03.539Z,41.96
2018-12-14T17:23:03.538Z,42.15
2018-12-14T17:24:03.524Z,42.05
2018-12-14T17:25:03.509Z,42.03
2018-12-14T17:26:03.495Z,42.05
2018-12-14T17:27:03.483Z,41.96
2018-12-14T17:28:03.476Z,42.05
2018-12-14T17:29:03.465Z,41.85
2018-12-14T17:30:03.451Z,41.85
2018-12-14T17:31:03.439Z,41.85
2018-12-14T17:32:03.429Z,41.85
2018-12-14T17:33:03.419Z,41.85
2018-12-14T17:34:03.430Z,41.96
2018-12-14T17:35:03.398Z,42.55
2018-12-14T17:36:03.386Z,41.85
2018-12-14T17:37:03.376Z,41.85
2018-12-14T17:38:03.367Z,41.96
2018-12-14T17:39:03.374Z,42.15
2018-12-14T17:40:03.344Z,42.05
2018-12-14T17:41:03.333Z,41.85
2018-12-14T17:42:03.328Z,41.85
2018-12-14T17:43:03.309Z,41.83
2018-12-14T17:44:03.298Z,41.83
2018-12-14T17:45:03.291Z,41.74
2018-12-14T17:46:03.275Z,41.44
2018-12-14T17:47:03.264Z,41.83
2018-12-14T17:48:03.257Z,41.53
2018-12-14T17:49:03.245Z,41.33
2018-12-14T17:50:03.243Z,42.13
2018-12-14T17:51:03.225Z,42.13
2018-12-14T17:52:03.211Z,41.63
2018-12-14T17:53:03.207Z,41.44
2018-12-14T17:54:03.190Z,41.24
2018-12-14T17:55:03.177Z,41.53
2018-12-14T17:56:03.165Z,41.75
2018-12-14T17:57:03.154Z,41.83
2018-12-14T17:58:03.144Z,41.63
2018-12-14T17:59:03.169Z,42.03
2018-12-14T18:00:03.134Z,41.53
2018-12-14T18:01:03.110Z,42.03
2018-12-14T18:02:03.102Z,41.63
2018-12-14T18:03:03.089Z,41.53
2018-12-14T18:04:03.076Z,41.83
2018-12-14T18:05:03.067Z,42.13
2018-12-14T18:06:03.057Z,41.74
2018-12-14T18:07:03.047Z,41.93
2018-12-14T18:08:03.033Z,41.93
2018-12-14T18:09:03.023Z,41.83
2018-12-14T18:10:03.017Z,41.83
2018-12-14T18:11:03.002Z,41.83
2018-12-14T18:12:02.990Z,41.83
2018-12-14T18:13:02.980Z,41.74
2018-12-14T18:14:02.970Z,42.13
2018-12-14T18:15:02.959Z,41.24
2018-12-14T18:16:02.955Z,41.63
2018-12-14T18:17:02.939Z,42.03
2018-12-14T18:18:02.927Z,41.74
2018-12-14T18:19:02.916Z,41.83
2018-12-14T18:20:02.908Z,41.33
2018-12-14T18:21:02.897Z,41.63
2018-12-14T18:22:02.903Z,41.63
2018-12-14T18:23:02.875Z,41.63
2018-12-14T18:24:02.864Z,41.33
2018-12-14T18:25:02.853Z,41.63
2018-12-14T18:26:02.843Z,41.83
2018-12-14T18:27:02.832Z,41.63
2018-12-14T18:28:02.825Z,41.24
2018-12-14T18:29:02.812Z,41.63
2018-12-14T18:30:02.803Z,41.53
2018-12-14T18:31:02.793Z,41.53
2018-12-14T18:32:02.779Z,41.83
2018-12-14T18:33:02.776Z,41.52
2018-12-14T18:34:02.757Z,41.24
2018-12-14T18:35:02.748Z,41.14
2018-12-14T18:36:02.734Z,41.41
2018-12-14T18:37:02.726Z,41.41
2018-12-14T18:38:02.714Z,41.41
2018-12-14T18:39:02.707Z,41.93
2018-12-14T18:40:02.694Z,41.52
2018-12-14T18:41:02.684Z,41.61
2018-12-14T18:42:02.672Z,41.41
2018-12-14T18:43:02.671Z,42.02
2018-12-14T18:44:02.650Z,41.52
2018-12-14T18:45:02.643Z,41.52
2018-12-14T18:46:02.629Z,41.61
2018-12-14T18:47:02.618Z,41.52
2018-12-14T18:48:02.607Z,41.31
2018-12-14T18:49:02.634Z,41.61
2018-12-14T18:50:02.592Z,41.52
2018-12-14T18:51:02.587Z,41.31
2018-12-14T18:52:02.729Z,41.41
2018-12-14T18:53:02.738Z,41.11
2018-12-14T18:54:02.958Z,40.52
2018-12-14T18:55:02.534Z,41.41
2018-12-14T18:56:02.747Z,41.41
2018-12-14T18:57:02.519Z,40.81
2018-12-14T18:58:02.810Z,41.52
2018-12-14T18:59:02.500Z,41.11
2018-12-14T19:00:02.486Z,41.31
2018-12-14T19:01:02.478Z,41.91
2018-12-14T19:02:02.466Z,41.41
2018-12-14T19:03:02.472Z,41.02
2018-12-14T19:04:02.443Z,40.52
2018-12-14T19:05:02.438Z,40.52
2018-12-14T19:06:02.426Z,40.42
2018-12-14T19:07:02.414Z,41.02
2018-12-14T19:08:02.395Z,40.42
2018-12-14T19:09:02.405Z,41.41
2018-12-14T19:10:02.376Z,40.42
2018-12-14T19:11:02.368Z,40.42
2018-12-14T19:12:02.352Z,40.52
2018-12-14T19:13:02.343Z,40.81
2018-12-14T19:14:02.333Z,40.62
2018-12-14T19:15:02.323Z,41.11
2018-12-14T19:16:02.313Z,40.72
2018-12-14T19:17:02.300Z,40.92
2018-12-14T19:18:02.294Z,40.52
2018-12-14T19:19:02.284Z,40.92
2018-12-14T19:20:02.268Z,40.52
2018-12-14T19:21:02.261Z,40.62
2018-12-14T19:22:02.248Z,40.52
2018-12-14T19:23:02.238Z,40.62
2018-12-14T19:24:02.230Z,40.81
2018-12-14T19:25:02.216Z,40.81
2018-12-14T19:26:02.204Z,40.52
2018-12-14T19:27:02.197Z,40.81
2018-12-14T19:28:02.182Z,40.72
2018-12-14T19:29:02.261Z,40.72
2018-12-14T19:30:02.162Z,40.81
2018-12-14T19:31:02.155Z,40.72
2018-12-14T19:32:02.146Z,40.92
2018-12-14T19:33:02.134Z,40.72
2018-12-14T19:34:02.120Z,40.52
2018-12-14T19:35:02.113Z,40.32
2018-12-14T19:36:02.103Z,40.32
2018-12-14T19:37:02.090Z,40.81
2018-12-14T19:38:02.078Z,40.42
2018-12-14T19:39:02.072Z,40.52
2018-12-14T19:40:02.058Z,40.52
2018-12-14T19:41:02.045Z,40.72
2018-12-14T19:42:02.036Z,41.11
2018-12-14T19:43:02.026Z,41.11
2018-12-14T19:44:02.013Z,41.11
2018-12-14T19:45:02.223Z,40.72
2018-12-14T19:46:06.233Z,40.62
2018-12-14T19:47:01.990Z,41.02
2018-12-14T19:48:02.014Z,41.02
2018-12-14T19:49:01.974Z,40.72
2018-12-14T19:50:01.966Z,40.62
2018-12-14T19:51:01.941Z,40.62
2018-12-14T19:52:01.999Z,40.62
2018-12-14T19:53:01.934Z,40.62
2018-12-14T19:54:01.960Z,40.52
2018-12-14T19:55:01.926Z,40.81
2018-12-14T19:56:01.906Z,40.22
2018-12-14T19:57:01.887Z,40.72
2018-12-14T19:58:01.875Z,40.42
2018-12-14T19:59:01.862Z,40.59
2018-12-14T20:00:01.861Z,40.42
2018-12-14T20:01:01.847Z,40.62
2018-12-14T20:02:01.833Z,40.42
2018-12-14T20:03:01.819Z,40.32
2018-12-14T20:04:01.814Z,40.42
2018-12-14T20:05:01.800Z,40.52
2018-12-14T20:06:01.788Z,40.32
2018-12-14T20:07:01.785Z,40.42
2018-12-14T20:08:01.809Z,40.42
2018-12-14T20:09:01.753Z,40.52
2018-12-14T20:10:01.742Z,40.52
2018-12-14T20:11:01.765Z,40.52
2018-12-14T20:12:01.723Z,40.62
2018-12-14T20:13:01.725Z,40.32
2018-12-14T20:14:01.710Z,40.22
2018-12-14T20:15:01.693Z,40.12
2018-12-14T20:16:01.684Z,39.92
2018-12-14T20:17:01.672Z,39.72
2018-12-14T20:18:01.667Z,40.32
2018-12-14T20:19:01.667Z,39.90
2018-12-14T20:20:01.642Z,39.92
2018-12-14T20:21:01.635Z,39.92
2018-12-14T20:22:01.625Z,40.42
2018-12-14T20:23:01.606Z,39.82
2018-12-14T20:24:01.598Z,40.12
2018-12-14T20:25:01.595Z,39.92
2018-12-14T20:26:01.610Z,40.22
2018-12-14T20:27:01.565Z,40.01
2018-12-14T20:28:01.563Z,40.22
2018-12-14T20:29:01.545Z,40.00
2018-12-14T20:30:01.545Z,40.20
2018-12-14T20:31:01.526Z,40.00
2018-12-14T20:32:01.521Z,40.10
2018-12-14T20:33:01.504Z,40.20
2018-12-14T20:34:01.496Z,40.10
2018-12-14T20:35:01.483Z,40.01
2018-12-14T20:36:01.470Z,40.12
2018-12-14T20:37:01.465Z,40.12
2018-12-14T20:38:01.471Z,40.10
2018-12-14T20:39:01.610Z,39.00
2018-12-14T20:40:01.567Z,40.40
2018-12-14T20:41:01.483Z,40.72
2018-12-14T20:42:01.475Z,39.50
2018-12-14T20:43:01.415Z,40.40
2018-12-14T20:44:01.489Z,40.10
2018-12-14T20:45:01.379Z,34.31
2018-12-14T20:46:01.368Z,35.03
2018-12-14T20:47:01.371Z,36.13
2018-12-14T20:48:01.344Z,37.42
2018-12-14T20:49:01.340Z,38.12
2018-12-14T20:50:01.322Z,38.52
2018-12-14T20:51:01.312Z,37.92
2018-12-14T20:52:01.312Z,38.22
2018-12-14T20:53:01.293Z,37.52
2018-12-14T20:54:01.428Z,38.62
2018-12-14T20:55:01.270Z,38.22
2018-12-14T20:56:01.256Z,38.42
2018-12-14T20:57:01.246Z,38.20
2018-12-14T20:58:01.234Z,38.20
2018-12-14T20:59:01.232Z,38.40
2018-12-14T21:00:01.243Z,38.20
2018-12-14T21:01:01.209Z,38.31
2018-12-14T21:02:01.200Z,38.00
2018-12-14T21:03:01.193Z,39.40
2018-12-14T21:04:01.172Z,39.00
2018-12-14T21:05:01.168Z,39.80
2018-12-14T21:06:01.155Z,40.50
2018-12-14T21:07:01.144Z,39.80
2018-12-14T21:08:01.131Z,39.20
2018-12-14T21:09:01.123Z,39.58
2018-12-14T21:10:01.105Z,39.38
2018-12-14T21:11:01.168Z,39.28
2018-12-14T21:12:01.087Z,38.68
2018-12-14T21:13:01.074Z,39.98
2018-12-14T21:14:01.064Z,39.68
2018-12-14T21:15:01.051Z,38.68
2018-12-14T21:16:01.041Z,39.18
2018-12-14T21:17:01.031Z,38.86
2018-12-14T21:18:01.022Z,38.86
2018-12-14T21:19:01.007Z,39.46
2018-12-14T21:20:00.996Z,40.06
2018-12-14T21:21:00.989Z,39.66
2018-12-14T21:22:00.979Z,39.46
2018-12-14T21:23:00.971Z,39.26
2018-12-14T21:24:00.961Z,39.26
2018-12-14T21:25:00.947Z,39.36
2018-12-14T21:26:00.933Z,39.56
2018-12-14T21:27:00.927Z,39.64
2018-12-14T21:28:00.920Z,39.34
2018-12-14T21:29:00.902Z,38.75
2018-12-14T21:30:00.892Z,39.44
2018-12-14T21:31:00.889Z,38.35
2018-12-14T21:32:00.874Z,38.35
2018-12-14T21:33:00.862Z,38.75
2018-12-14T21:34:00.850Z,39.25
2018-12-14T21:35:00.838Z,38.95
2018-12-14T21:36:00.832Z,38.95
2018-12-14T21:37:00.828Z,39.34
2018-12-14T21:38:00.813Z,38.75
2018-12-14T21:39:00.813Z,38.25
2018-12-14T21:40:00.808Z,38.27
2018-12-14T21:41:00.778Z,38.17
2018-12-14T21:42:00.770Z,38.37
2018-12-14T21:43:00.753Z,38.46
2018-12-14T21:44:00.745Z,38.17
2018-12-14T21:45:00.732Z,38.37
2018-12-14T21:46:00.724Z,38.29
2018-12-14T21:47:00.714Z,38.56
2018-12-14T21:48:00.705Z,38.37
2018-12-14T21:49:00.706Z,38.56
2018-12-14T21:50:00.682Z,38.29
2018-12-14T21:51:00.670Z,38.39
2018-12-14T21:52:00.662Z,38.18
2018-12-14T21:53:00.650Z,38.48
2018-12-14T21:54:00.642Z,38.48
2018-12-14T21:55:00.627Z,38.68
2018-12-14T21:56:00.616Z,38.18
2018-12-14T21:57:00.622Z,37.98
2018-12-14T21:58:00.596Z,37.98
2018-12-14T21:59:00.590Z,39.28
2018-12-14T22:00:00.575Z,39.60
2018-12-14T22:01:00.563Z,39.48
2018-12-14T22:02:00.554Z,39.70
2018-12-14T22:03:00.545Z,38.80
2018-12-14T22:04:00.537Z,39.38
2018-12-14T22:05:00.522Z,39.68
2018-12-14T22:06:00.510Z,39.48
2018-12-14T22:07:00.505Z,39.68
2018-12-14T22:08:00.489Z,39.38
2018-12-14T22:09:00.487Z,39.58
2018-12-14T22:10:00.475Z,39.98
2018-12-14T22:11:00.459Z,39.58
2018-12-14T22:12:00.450Z,39.78
2018-12-14T22:13:00.438Z,39.38
2018-12-14T22:14:00.440Z,39.58
2018-12-14T22:15:01.287Z,39.88
2018-12-14T22:16:00.403Z,39.30
2018-12-14T22:17:00.392Z,40.00
2018-12-14T22:18:00.383Z,39.60
2018-12-14T22:19:00.372Z,39.40
2018-12-14T22:20:00.362Z,39.40
2018-12-14T22:21:00.350Z,39.30
2018-12-14T22:22:00.339Z,39.70
2018-12-14T22:23:00.329Z,39.32
2018-12-14T22:24:00.321Z,40.40
2018-12-14T22:25:00.318Z,40.40
2018-12-14T22:26:00.298Z,39.30
2018-12-14T22:27:00.289Z,39.30
2018-12-14T22:28:00.274Z,39.32
2018-12-14T22:29:00.266Z,39.70
2018-12-14T22:30:00.252Z,39.20
2018-12-14T22:31:00.258Z,39.32
2018-12-14T22:32:00.239Z,40.00
2018-12-14T22:33:00.219Z,39.80
2018-12-14T22:34:00.219Z,40.52
2018-12-14T22:35:00.199Z,40.40
2018-12-14T22:36:00.228Z,40.22
2018-12-14T22:37:00.181Z,40.42
2018-12-14T22:38:00.169Z,40.42
2018-12-14T22:39:00.160Z,40.72
2018-12-14T22:40:00.147Z,40.62
2018-12-14T22:41:00.136Z,41.91
2018-12-14T22:42:00.128Z,41.52
2018-12-14T22:43:00.116Z,41.71
2018-12-14T22:44:00.104Z,41.80
2018-12-14T22:45:00.093Z,41.89
2018-12-14T22:46:00.101Z,31.13
2018-12-14T22:47:00.073Z,29.95
2018-12-14T22:48:00.062Z,33.36
2018-12-14T22:49:00.053Z,35.28
2018-12-14T22:50:00.041Z,36.90
2018-12-14T22:51:00.032Z,36.99
2018-12-14T22:52:00.019Z,37.99
2018-12-14T22:53:00.009Z,38.09
2018-12-14T22:53:59.996Z,38.38
2018-12-14T22:55:00.004Z,39.67
2018-12-14T22:56:00.044Z,40.88
2018-12-14T22:56:59.977Z,41.38
2018-12-14T22:57:59.954Z,41.75
2018-12-14T22:59:00.004Z,41.85
2018-12-14T23:00:00.160Z,42.35
2018-12-14T23:00:59.924Z,41.66
2018-12-14T23:01:59.917Z,41.96
2018-12-14T23:02:59.902Z,42.15
2018-12-14T23:03:59.889Z,42.73
2018-12-14T23:04:59.879Z,42.54
2018-12-14T23:05:59.888Z,41.63
2018-12-14T23:06:59.867Z,42.63
